Sawtooth City, Idaho
Current Conditions -  °F | °C
As of 1:55 AM on Wednesday 28 Jan 2015 (Local Time) from KSUN Reporting Station
Overcast Overcast  
Wind Chill: 34°   Ceiling: 1600
Heat Index: 34°   Visibility: 10mi
Dew Point: 34°   Wind: 0mph
Humidity: 100%   Direction: NA
Pressure: 30.15"   Gusts: NA
Location:  43.7579°N, 114.524°W
Report Text: KSUN 280855Z AUTO 00000KT 10SM OVC016 01/01 A3015 RMK AO2
Loading
Personal Weather Stations






























Interactive Weather Map New forecast layout! Learn more

10-Day Weather Forecast

Advertisements
Track Severe Weather on mobile